Dalaman, Turkey
Current Conditions -  °F | °C
As of 3:20 AM on Friday 28 Nov 2014 (Local Time) from LTBS Reporting Station
Clear Clear  
Wind Chill: 39°   Ceiling: Unl
Heat Index: 43°   Visibility: 6mi
Dew Point: 39°   Wind: 6mph
Humidity: 87%   Direction: 30°NNE
Pressure: 30.15"   Gusts: NA
Location:  36.77°N, 28.8°E
Report Text: LTBS 280020Z 03005KT CAVOK 06/04 Q1021 NOSIG
Loading
Personal Weather Stations






























Interactive Weather Map New forecast layout! Learn more

10-Day Weather Forecast

Advertisements
Track Severe Weather on mobile